Aviation Digital Data Service (ADDS)

Output produced by METARs form (0241 UTC 25 January 2020)
found at http://www.aviationweather.gov/metar/data/
 
METAR text: MMUN 250143Z 34006KT 7SM FEW070 SCT250 21/16 A3007 RMK 8/038 SC
Conditions at: MMUN (CANCUN , MX) observed 0143 UTC 25 January 2020
Temperature: 21.0°C (70°F)
Dewpoint: 16.0°C (61°F) [RH = 73%]
Pressure (altimeter): 30.07 inches Hg (1018.4 mb)
Winds: from the NNW (340 degrees) at 7 MPH (6 knots; 3.1 m/s)
Visibility: 7 miles (11 km)
Ceiling: at least 12,000 feet AGL
Clouds: few clouds at 7000 feet AGL
scattered clouds at 25000 feet AGL
Weather: no significant weather observed at this time

METAR text: MMUN 250040Z 33006KT 7SM SCT250 22/17 A3006 RMK 8/008 SC N
Conditions at: MMUN (CANCUN , MX) observed 0040 UTC 25 January 2020
Temperature: 22.0°C (72°F)
Dewpoint: 17.0°C (63°F) [RH = 73%]
Pressure (altimeter): 30.06 inches Hg (1018.0 mb)
Winds: from the NNW (330 degrees) at 7 MPH (6 knots; 3.1 m/s)
Visibility: 7 miles (11 km)
Ceiling: at least 12,000 feet AGL
Clouds: scattered clouds at 25000 feet AGL
Weather: no significant weather observed at this time

METAR text: MMUN 242344Z 34007KT 7SM FEW070 BKN250 23/17 A3004 RMK SLP175 53013 928 8/078
Conditions at: MMUN (CANCUN , MX) observed 2344 UTC 24 January 2020
Temperature: 23.0°C (73°F)
Dewpoint: 17.0°C (63°F) [RH = 69%]
Pressure (altimeter): 30.04 inches Hg (1017.4 mb)
[Sea-level pressure: 1017.5 mb]
Winds: from the NNW (340 degrees) at 8 MPH (7 knots; 3.6 m/s)
Visibility: 7 miles (11 km)
Ceiling: 25000 feet AGL
Clouds: few clouds at 7000 feet AGL
broken clouds at 25000 feet AGL
Weather: no significant weather observed at this time

METAR text: MMUN 242240Z 02009KT 7SM FEW015 FEW070 BKN250 24/17 A3003 RMK 8/578
Conditions at: MMUN (CANCUN , MX) observed 2240 UTC 24 January 2020
Temperature: 24.0°C (75°F)
Dewpoint: 17.0°C (63°F) [RH = 65%]
Pressure (altimeter): 30.03 inches Hg (1017.0 mb)
Winds: from the NNE (20 degrees) at 10 MPH (9 knots; 4.6 m/s)
Visibility: 7 miles (11 km)
Ceiling: 25000 feet AGL
Clouds: few clouds at 1500 feet AGL
few clouds at 7000 feet AGL
broken clouds at 25000 feet AGL
Weather: no significant weather observed at this time

METAR text: MMUN 242148Z 02006KT 7SM SCT018 BKN250 24/18 A3001 RMK 8/508 AC
Conditions at: MMUN (CANCUN , MX) observed 2148 UTC 24 January 2020
Temperature: 24.0°C (75°F)
Dewpoint: 18.0°C (64°F) [RH = 69%]
Pressure (altimeter): 30.01 inches Hg (1016.3 mb)
Winds: from the NNE (20 degrees) at 7 MPH (6 knots; 3.1 m/s)
Visibility: 7 miles (11 km)
Ceiling: 25000 feet AGL
Clouds: scattered clouds at 1800 feet AGL
broken clouds at 25000 feet AGL
Weather: no significant weather observed at this time

METAR text: MMUN 242041Z 33008KT 7SM SCT018 BKN250 25/19 A3001 RMK SLP162 57016 918 8/508 AC
Conditions at: MMUN (CANCUN , MX) observed 2041 UTC 24 January 2020
Temperature: 25.0°C (77°F)
Dewpoint: 19.0°C (66°F) [RH = 69%]
Pressure (altimeter): 30.01 inches Hg (1016.3 mb)
[Sea-level pressure: 1016.2 mb]
Winds: from the NNW (330 degrees) at 9 MPH (8 knots; 4.1 m/s)
Visibility: 7 miles (11 km)
Ceiling: 25000 feet AGL
Clouds: scattered clouds at 1800 feet AGL
broken clouds at 25000 feet AGL
Weather: no significant weather observed at this time

METAR text: MMUN 241944Z 35005KT 7SM SCT018 BKN250 25/19 A3001 RMK 8/508 AC
Conditions at: MMUN (CANCUN , MX) observed 1944 UTC 24 January 2020
Temperature: 25.0°C (77°F)
Dewpoint: 19.0°C (66°F) [RH = 69%]
Pressure (altimeter): 30.01 inches Hg (1016.3 mb)
Winds: from the N (350 degrees) at 6 MPH (5 knots; 2.6 m/s)
Visibility: 7 miles (11 km)
Ceiling: 25000 feet AGL
Clouds: scattered clouds at 1800 feet AGL
broken clouds at 25000 feet AGL
Weather: no significant weather observed at this time

METAR text: MMUN 241848Z 35007KT 7SM SCT018 BKN250 25/18 A3003 RMK 8/508
Conditions at: MMUN (CANCUN , MX) observed 1848 UTC 24 January 2020
Temperature: 25.0°C (77°F)
Dewpoint: 18.0°C (64°F) [RH = 65%]
Pressure (altimeter): 30.03 inches Hg (1017.0 mb)
Winds: from the N (350 degrees) at 8 MPH (7 knots; 3.6 m/s)
Visibility: 7 miles (11 km)
Ceiling: 25000 feet AGL
Clouds: scattered clouds at 1800 feet AGL
broken clouds at 25000 feet AGL
Weather: no significant weather observed at this time

METAR text: MMUN 241745Z 34003KT 7SM BKN018 BKN250 25/19 A3005 RMK SLP178 57003 919 8/508
Conditions at: MMUN (CANCUN , MX) observed 1745 UTC 24 January 2020
Temperature: 25.0°C (77°F)
Dewpoint: 19.0°C (66°F) [RH = 69%]
Pressure (altimeter): 30.05 inches Hg (1017.7 mb)
[Sea-level pressure: 1017.8 mb]
Winds: from the NNW (340 degrees) at 3 MPH (3 knots; 1.5 m/s)
Visibility: 7 miles (11 km)
Ceiling: 1800 feet AGL
Clouds: broken clouds at 1800 feet AGL
broken clouds at 25000 feet AGL
Weather: no significant weather observed at this time

METAR text: MMUN 241655Z 00000KT 7SM SCT015 BKN250 25/18 A3006 RMK 8/108
Conditions at: MMUN (CANCUN , MX) observed 1655 UTC 24 January 2020
Temperature: 25.0°C (77°F)
Dewpoint: 18.0°C (64°F) [RH = 65%]
Pressure (altimeter): 30.06 inches Hg (1018.0 mb)
Winds: calm
Visibility: 7 miles (11 km)
Ceiling: 25000 feet AGL
Clouds: scattered clouds at 1500 feet AGL
broken clouds at 25000 feet AGL
Weather: no significant weather observed at this time

METAR text: MMUN 241550Z 33007KT 7SM FEW015 SCT060 BKN250 25/18 A3009 RMK 8/138
Conditions at: MMUN (CANCUN , MX) observed 1550 UTC 24 January 2020
Temperature: 25.0°C (77°F)
Dewpoint: 18.0°C (64°F) [RH = 65%]
Pressure (altimeter): 30.09 inches Hg (1019.0 mb)
Winds: from the NNW (330 degrees) at 8 MPH (7 knots; 3.6 m/s)
Visibility: 7 miles (11 km)
Ceiling: 25000 feet AGL
Clouds: few clouds at 1500 feet AGL
scattered clouds at 6000 feet AGL
broken clouds at 25000 feet AGL
Weather: no significant weather observed at this time

METAR text: MMUN 241444Z 35004KT 7SM BKN070 BKN250 24/18 A3006 RMK SLP181 52027 918 8/078
Conditions at: MMUN (CANCUN , MX) observed 1444 UTC 24 January 2020
Temperature: 24.0°C (75°F)
Dewpoint: 18.0°C (64°F) [RH = 69%]
Pressure (altimeter): 30.06 inches Hg (1018.0 mb)
[Sea-level pressure: 1018.1 mb]
Winds: from the N (350 degrees) at 5 MPH (4 knots; 2.1 m/s)
Visibility: 7 miles (11 km)
Ceiling: 7000 feet AGL
Clouds: broken clouds at 7000 feet AGL
broken clouds at 25000 feet AGL
Weather: no significant weather observed at this time

METAR text: MMUN 241342Z 33004KT 7SM SCT018 BKN250 21/16 A3004 RMK 8/508
Conditions at: MMUN (CANCUN , MX) observed 1342 UTC 24 January 2020
Temperature: 21.0°C (70°F)
Dewpoint: 16.0°C (61°F) [RH = 73%]
Pressure (altimeter): 30.04 inches Hg (1017.4 mb)
Winds: from the NNW (330 degrees) at 5 MPH (4 knots; 2.1 m/s)
Visibility: 7 miles (11 km)
Ceiling: 25000 feet AGL
Clouds: scattered clouds at 1800 feet AGL
broken clouds at 25000 feet AGL
Weather: no significant weather observed at this time

METAR text: MMUN 241242Z 32006KT 7SM BKN018 19/17 A3003 RMK 8/500 CI
Conditions at: MMUN (CANCUN , MX) observed 1242 UTC 24 January 2020
Temperature: 19.0°C (66°F)
Dewpoint: 17.0°C (63°F) [RH = 88%]
Pressure (altimeter): 30.03 inches Hg (1017.0 mb)
Winds: from the NW (320 degrees) at 7 MPH (6 knots; 3.1 m/s)
Visibility: 7 miles (11 km)
Ceiling: 1800 feet AGL
Clouds: broken clouds at 1800 feet AGL
Weather: no significant weather observed at this time

METAR text: MMUN 241146Z 00000KT 7SM SCT018 17/17 A2999 RMK SLP154 51005 900 8/500 CI
Conditions at: MMUN (CANCUN , MX) observed 1146 UTC 24 January 2020
Temperature: 17.0°C (63°F)
Dewpoint: 17.0°C (63°F) [RH = 100%]
Pressure (altimeter): 29.99 inches Hg (1015.7 mb)
[Sea-level pressure: 1015.4 mb]
Winds: calm
Visibility: 7 miles (11 km)
Ceiling: at least 12,000 feet AGL
Clouds: scattered clouds at 1800 feet AGL
Weather: no significant weather observed at this time

METAR text: MMUN 241047Z 00000KT 7SM FEW018 16/15 A2997 RMK 8/500
Conditions at: MMUN (CANCUN , MX) observed 1047 UTC 24 January 2020
Temperature: 16.0°C (61°F)
Dewpoint: 15.0°C (59°F) [RH = 94%]
Pressure (altimeter): 29.97 inches Hg (1015.0 mb)
Winds: calm
Visibility: 7 miles (11 km)
Ceiling: at least 12,000 feet AGL
Clouds: few clouds at 1800 feet AGL
Weather: no significant weather observed at this time

METAR text: MMUN 240948Z 00000KT 7SM SKC 16/15 A2998 RMK SC
Conditions at: MMUN (CANCUN , MX) observed 0948 UTC 24 January 2020
Temperature: 16.0°C (61°F)
Dewpoint: 15.0°C (59°F) [RH = 94%]
Pressure (altimeter): 29.98 inches Hg (1015.3 mb)
Winds: calm
Visibility: 7 miles (11 km)
Ceiling: at least 12,000 feet AGL
Clouds: clear skies
Weather: no significant weather observed at this time

METAR text: MMUN 240849Z 00000KT 7SM SKC 16/15 A2997 RMK SLP149 57007 962
Conditions at: MMUN (CANCUN , MX) observed 0849 UTC 24 January 2020
Temperature: 16.0°C (61°F)
Dewpoint: 15.0°C (59°F) [RH = 94%]
Pressure (altimeter): 29.97 inches Hg (1015.0 mb)
[Sea-level pressure: 1014.9 mb]
Winds: calm
Visibility: 7 miles (11 km)
Ceiling: at least 12,000 feet AGL
Clouds: clear skies
Weather: no significant weather observed at this time

METAR text: MMUN 240744Z 00000KT 7SM SKC 16/15 A2996 RMK SC
Conditions at: MMUN (CANCUN , MX) observed 0744 UTC 24 January 2020
Temperature: 16.0°C (61°F)
Dewpoint: 15.0°C (59°F) [RH = 94%]
Pressure (altimeter): 29.96 inches Hg (1014.6 mb)
Winds: calm
Visibility: 7 miles (11 km)
Ceiling: at least 12,000 feet AGL
Clouds: clear skies
Weather: no significant weather observed at this time

METAR text: MMUN 240646Z 00000KT 7SM FEW018 17/17 A2997 RMK 8/500
Conditions at: MMUN (CANCUN , MX) observed 0646 UTC 24 January 2020
Temperature: 17.0°C (63°F)
Dewpoint: 17.0°C (63°F) [RH = 100%]
Pressure (altimeter): 29.97 inches Hg (1015.0 mb)
Winds: calm
Visibility: 7 miles (11 km)
Ceiling: at least 12,000 feet AGL
Clouds: few clouds at 1800 feet AGL
Weather: no significant weather observed at this time

METAR text: MMUN 240546Z 00000KT 7SM FEW018 17/17 A2999 RMK SLP156 56005 972 8/500
Conditions at: MMUN (CANCUN , MX) observed 0546 UTC 24 January 2020
Temperature: 17.0°C (63°F)
Dewpoint: 17.0°C (63°F) [RH = 100%]
Pressure (altimeter): 29.99 inches Hg (1015.7 mb)
[Sea-level pressure: 1015.6 mb]
Winds: calm
Visibility: 7 miles (11 km)
Ceiling: at least 12,000 feet AGL
Clouds: few clouds at 1800 feet AGL
Weather: no significant weather observed at this time

METAR text: MMUN 240447Z 00000KT 7SM FEW018 18/17 A3001 RMK 8/500
Conditions at: MMUN (CANCUN , MX) observed 0447 UTC 24 January 2020
Temperature: 18.0°C (64°F)
Dewpoint: 17.0°C (63°F) [RH = 94%]
Pressure (altimeter): 30.01 inches Hg (1016.3 mb)
Winds: calm
Visibility: 7 miles (11 km)
Ceiling: at least 12,000 feet AGL
Clouds: few clouds at 1800 feet AGL
Weather: no significant weather observed at this time

METAR text: MMUN 240348Z 00000KT 7SM SCT018 19/17 A3001 RMK 8/500
Conditions at: MMUN (CANCUN , MX) observed 0348 UTC 24 January 2020
Temperature: 19.0°C (66°F)
Dewpoint: 17.0°C (63°F) [RH = 88%]
Pressure (altimeter): 30.01 inches Hg (1016.3 mb)
Winds: calm
Visibility: 7 miles (11 km)
Ceiling: at least 12,000 feet AGL
Clouds: scattered clouds at 1800 feet AGL
Weather: no significant weather observed at this time

METAR text: MMUN 240249Z 05004KT 7SM SCT018 20/17 A3000 RMK SLP161 52014 973 8/500
Conditions at: MMUN (CANCUN , MX) observed 0249 UTC 24 January 2020
Temperature: 20.0°C (68°F)
Dewpoint: 17.0°C (63°F) [RH = 83%]
Pressure (altimeter): 30.00 inches Hg (1016.0 mb)
[Sea-level pressure: 1016.1 mb]
Winds: from the NE (50 degrees) at 5 MPH (4 knots; 2.1 m/s)
Visibility: 7 miles (11 km)
Ceiling: at least 12,000 feet AGL
Clouds: scattered clouds at 1800 feet AGL
Weather: no significant weather observed at this time

METAR text: MMUN 240140Z 00000KT 7SM SCT018 20/17 A2999 RMK 8/500
Conditions at: MMUN (CANCUN , MX) observed 0140 UTC 24 January 2020
Temperature: 20.0°C (68°F)
Dewpoint: 17.0°C (63°F) [RH = 83%]
Pressure (altimeter): 29.99 inches Hg (1015.7 mb)
Winds: calm
Visibility: 7 miles (11 km)
Ceiling: at least 12,000 feet AGL
Clouds: scattered clouds at 1800 feet AGL
Weather: no significant weather observed at this time

METAR text: MMUN 240040Z 03003KT 7SM BKN018 21/17 A2998 RMK 8/500
Conditions at: MMUN (CANCUN , MX) observed 0040 UTC 24 January 2020
Temperature: 21.0°C (70°F)
Dewpoint: 17.0°C (63°F) [RH = 78%]
Pressure (altimeter): 29.98 inches Hg (1015.3 mb)
Winds: from the NNE (30 degrees) at 3 MPH (3 knots; 1.5 m/s)
Visibility: 7 miles (11 km)
Ceiling: 1800 feet AGL
Clouds: broken clouds at 1800 feet AGL
Weather: no significant weather observed at this time

METAR text: MMUN 232344Z 08003KT 7SM FEW015 SCT018 22/17 A2996 RMK SLP147 53003 973 8/800
Conditions at: MMUN (CANCUN , MX) observed 2344 UTC 23 January 2020
Temperature: 22.0°C (72°F)
Dewpoint: 17.0°C (63°F) [RH = 73%]
Pressure (altimeter): 29.96 inches Hg (1014.6 mb)
[Sea-level pressure: 1014.7 mb]
Winds: from the E (80 degrees) at 3 MPH (3 knots; 1.5 m/s)
Visibility: 7 miles (11 km)
Ceiling: at least 12,000 feet AGL
Clouds: few clouds at 1500 feet AGL
scattered clouds at 1800 feet AGL
Weather: no significant weather observed at this time

METAR text: MMUN 232241Z 08005KT 7SM BKN020 23/17 A2996 RMK 8/500 CU
Conditions at: MMUN (CANCUN , MX) observed 2241 UTC 23 January 2020
Temperature: 23.0°C (73°F)
Dewpoint: 17.0°C (63°F) [RH = 69%]
Pressure (altimeter): 29.96 inches Hg (1014.6 mb)
Winds: from the E (80 degrees) at 6 MPH (5 knots; 2.6 m/s)
Visibility: 7 miles (11 km)
Ceiling: 2000 feet AGL
Clouds: broken clouds at 2000 feet AGL
Weather: no significant weather observed at this time

METAR text: MMUN 232140Z 10005KT 7SM BKN020 23/16 A2995 RMK 8/500 CU AC AS
Conditions at: MMUN (CANCUN , MX) observed 2140 UTC 23 January 2020
Temperature: 23.0°C (73°F)
Dewpoint: 16.0°C (61°F) [RH = 65%]
Pressure (altimeter): 29.95 inches Hg (1014.3 mb)
Winds: from the E (100 degrees) at 6 MPH (5 knots; 2.6 m/s)
Visibility: 7 miles (11 km)
Ceiling: 2000 feet AGL
Clouds: broken clouds at 2000 feet AGL
Weather: no significant weather observed at this time

METAR text: MMUN 232045Z 10005KT 7SM BKN020 OVC065 23/16 A2995 RMK SLP144 57015 980 8/57/ BINOVC
Conditions at: MMUN (CANCUN , MX) observed 2045 UTC 23 January 2020
Temperature: 23.0°C (73°F)
Dewpoint: 16.0°C (61°F) [RH = 65%]
Pressure (altimeter): 29.95 inches Hg (1014.3 mb)
[Sea-level pressure: 1014.4 mb]
Winds: from the E (100 degrees) at 6 MPH (5 knots; 2.6 m/s)
Visibility: 7 miles (11 km)
Ceiling: 2000 feet AGL
Clouds: broken clouds at 2000 feet AGL
overcast cloud deck at 6500 feet AGL
Weather: no significant weather observed at this time

METAR text: MMUN 231943Z 08005KT 7SM BKN020 24/16 A2996 RMK 8/500 CU AC
Conditions at: MMUN (CANCUN , MX) observed 1943 UTC 23 January 2020
Temperature: 24.0°C (75°F)
Dewpoint: 16.0°C (61°F) [RH = 61%]
Pressure (altimeter): 29.96 inches Hg (1014.6 mb)
Winds: from the E (80 degrees) at 6 MPH (5 knots; 2.6 m/s)
Visibility: 7 miles (11 km)
Ceiling: 2000 feet AGL
Clouds: broken clouds at 2000 feet AGL
Weather: no significant weather observed at this time

METAR text: MMUN 231847Z 05008KT 7SM BKN030 23/16 A2997 RMK 8/500
Conditions at: MMUN (CANCUN , MX) observed 1847 UTC 23 January 2020
Temperature: 23.0°C (73°F)
Dewpoint: 16.0°C (61°F) [RH = 65%]
Pressure (altimeter): 29.97 inches Hg (1015.0 mb)
Winds: from the NE (50 degrees) at 9 MPH (8 knots; 4.1 m/s)
Visibility: 7 miles (11 km)
Ceiling: 3000 feet AGL
Clouds: broken clouds at 3000 feet AGL
Weather: no significant weather observed at this time

METAR text: MMUN 231757Z RTD 07005KT 7SM BKN018 23/16 A2999 RMK SLP159 57004 987 8/500
Conditions at: MMUN (CANCUN , MX) observed 1757 UTC 23 January 2020
Temperature: 23.0°C (73°F)
Dewpoint: 16.0°C (61°F) [RH = 65%]
Pressure (altimeter): 29.99 inches Hg (1015.7 mb)
[Sea-level pressure: 1015.9 mb]
Winds: from the ENE (70 degrees) at 6 MPH (5 knots; 2.6 m/s)
Visibility: 7 miles (11 km)
Ceiling: 1800 feet AGL
Clouds: broken clouds at 1800 feet AGL
Weather: no significant weather observed at this time

METAR text: MMUN 231641Z 09007KT 7SM SCT018 23/17 A3002 RMK 8/500
Conditions at: MMUN (CANCUN , MX) observed 1641 UTC 23 January 2020
Temperature: 23.0°C (73°F)
Dewpoint: 17.0°C (63°F) [RH = 69%]
Pressure (altimeter): 30.02 inches Hg (1016.7 mb)
Winds: from the E (90 degrees) at 8 MPH (7 knots; 3.6 m/s)
Visibility: 7 miles (11 km)
Ceiling: at least 12,000 feet AGL
Clouds: scattered clouds at 1800 feet AGL
Weather: no significant weather observed at this time

METAR text: MMUN 231553Z 10009KT 7SM SCT018 24/16 A3002 RMK 8/500
Conditions at: MMUN (CANCUN , MX) observed 1553 UTC 23 January 2020
Temperature: 24.0°C (75°F)
Dewpoint: 16.0°C (61°F) [RH = 61%]
Pressure (altimeter): 30.02 inches Hg (1016.7 mb)
Winds: from the E (100 degrees) at 10 MPH (9 knots; 4.6 m/s)
Visibility: 7 miles (11 km)
Ceiling: at least 12,000 feet AGL
Clouds: scattered clouds at 1800 feet AGL
Weather: no significant weather observed at this time

METAR text: MMUN 231449Z 09007KT 7SM FEW018 23/17 A3001 RMK SLP163 52009 991 8/500
Conditions at: MMUN (CANCUN , MX) observed 1449 UTC 23 January 2020
Temperature: 23.0°C (73°F)
Dewpoint: 17.0°C (63°F) [RH = 69%]
Pressure (altimeter): 30.01 inches Hg (1016.3 mb)
[Sea-level pressure: 1016.3 mb]
Winds: from the E (90 degrees) at 8 MPH (7 knots; 3.6 m/s)
Visibility: 7 miles (11 km)
Ceiling: at least 12,000 feet AGL
Clouds: few clouds at 1800 feet AGL
Weather: no significant weather observed at this time

Forecast for: MMUN (CANCUN , MX)
Text: TAF MMUN 242317Z 2500/2606 02010KT P6SM SCT015 SCT070 BKN250 TX25/2518Z TN16/2512Z
Forecast period: 0000 to 0400 UTC 25 January 2020
Forecast type: FROM: standard forecast or significant change
Winds: from the NNE (20 degrees) at 12 MPH (10 knots; 5.1 m/s)
Visibility: 6 or more miles 10+ km)
Ceiling: 25000 feet AGL
Clouds: scattered clouds at 1500 feet AGL
scattered clouds at 7000 feet AGL
broken clouds at 25000 feet AGL
Weather: no significant weather forecast for this period
Text: BECMG 2504/2505 01005KT
Forecast period: 0400 to 1800 UTC 25 January 2020
Forecast type: BECOMING: Conditions expected to become as follows by 0500 UTC 25 January 2020
Winds: from the N (10 degrees) at 6 MPH (5 knots; 2.6 m/s)
Visibility: 6 or more miles 10+ km)
Ceiling: 25000 feet AGL
Clouds: scattered clouds at 1500 feet AGL
scattered clouds at 7000 feet AGL
broken clouds at 25000 feet AGL
Weather: no significant weather forecast for this period
Text: FM251800 04010KT P6SM BKN015
Forecast period: 1800 UTC 25 January 2020 to 0200 UTC 26 January 2020
Forecast type: FROM: standard forecast or significant change
Winds: from the NE (40 degrees) at 12 MPH (10 knots; 5.1 m/s)
Visibility: 6 or more miles 10+ km)
Ceiling: 1500 feet AGL
Clouds: broken clouds at 1500 feet AGL
Weather: no significant weather forecast for this period
Text: TEMPO 2522/2602 SCT015
Forecast period: 2200 UTC 25 January 2020 to 0200 UTC 26 January 2020
Forecast type: TEMPORARY: The following changes expected for less than half the time period
Visibility: missing
Ceiling: at least 12,000 feet AGL
Clouds: scattered clouds at 1500 feet AGL
Weather: no significant weather forecast for this period
Text: FM260200 03005KT P6SM BKN015
Forecast period: 0200 to 0600 UTC 26 January 2020
Forecast type: FROM: standard forecast or significant change
Winds: from the NNE (30 degrees) at 6 MPH (5 knots; 2.6 m/s)
Visibility: 6 or more miles 10+ km)
Ceiling: 1500 feet AGL
Clouds: broken clouds at 1500 feet AGL
Weather: no significant weather forecast for this period